createdAt,value
2023-01-11T00:00:15.164Z,0.80
2023-01-11T00:01:15.157Z,0.90
2023-01-11T00:02:15.129Z,0.80
2023-01-11T00:03:15.125Z,0.80
2023-01-11T00:04:15.097Z,0.80
2023-01-11T00:05:15.157Z,0.80
2023-01-11T00:06:15.101Z,0.90
2023-01-11T00:07:15.058Z,1.10
2023-01-11T00:08:15.065Z,1.00
2023-01-11T00:09:15.046Z,0.70
2023-01-11T00:10:15.056Z,0.80
2023-01-11T00:11:15.056Z,0.70
2023-01-11T00:12:15.035Z,0.80
2023-01-11T00:13:15.019Z,0.70
2023-01-11T00:14:15.028Z,0.80
2023-01-11T00:15:14.985Z,0.60
2023-01-11T00:16:15.029Z,0.90
2023-01-11T00:17:14.969Z,0.80
2023-01-11T00:18:14.946Z,0.70
2023-01-11T00:19:14.933Z,0.70
2023-01-11T00:20:14.950Z,0.80
2023-01-11T00:21:14.922Z,0.70
2023-01-11T00:22:14.895Z,0.70
2023-01-11T00:23:14.892Z,0.60
2023-01-11T00:24:14.878Z,0.80
2023-01-11T00:25:14.901Z,0.70
2023-01-11T00:26:14.848Z,0.70
2023-01-11T00:27:14.884Z,0.70
2023-01-11T00:28:14.837Z,0.70
2023-01-11T00:29:14.824Z,0.80
2023-01-11T00:30:14.838Z,0.60
2023-01-11T00:31:14.849Z,0.80
2023-01-11T00:32:14.789Z,0.70
2023-01-11T00:33:14.779Z,0.60
2023-01-11T00:34:14.807Z,0.70
2023-01-11T00:35:14.757Z,1.10
2023-01-11T00:36:14.766Z,0.50
2023-01-11T00:37:14.745Z,0.80
2023-01-11T00:38:14.715Z,0.70
2023-01-11T00:39:14.722Z,0.80
2023-01-11T00:40:14.759Z,0.70
2023-01-11T00:41:14.736Z,0.60
2023-01-11T00:42:14.676Z,0.60
2023-01-11T00:43:14.686Z,0.60
2023-01-11T00:44:14.648Z,0.80
2023-01-11T00:45:14.652Z,0.70
2023-01-11T00:46:14.792Z,0.60
2023-01-11T00:47:14.684Z,0.70
2023-01-11T00:48:14.648Z,0.90
2023-01-11T00:49:14.617Z,0.70
2023-01-11T00:50:14.597Z,0.80
2023-01-11T00:51:14.586Z,0.70
2023-01-11T00:52:14.596Z,0.70
2023-01-11T00:53:14.604Z,0.90
2023-01-11T00:54:14.596Z,0.70
2023-01-11T00:55:14.536Z,0.80
2023-01-11T00:56:14.555Z,0.70
2023-01-11T00:57:14.516Z,0.70
2023-01-11T00:58:14.542Z,0.70
2023-01-11T00:59:14.496Z,0.60
2023-01-11T01:00:14.501Z,0.80
2023-01-11T01:01:14.544Z,0.80
2023-01-11T01:02:14.534Z,0.80
2023-01-11T01:03:14.489Z,0.70
2023-01-11T01:04:14.462Z,0.60
2023-01-11T01:05:14.483Z,0.60
2023-01-11T01:06:14.426Z,0.60
2023-01-11T01:07:14.415Z,0.70
2023-01-11T01:08:14.474Z,0.70
2023-01-11T01:09:14.392Z,0.90
2023-01-11T01:10:14.408Z,0.70
2023-01-11T01:11:14.423Z,0.70
2023-01-11T01:12:14.343Z,0.60
2023-01-11T01:13:14.364Z,0.60
2023-01-11T01:14:14.375Z,0.80
2023-01-11T01:15:14.322Z,0.60
2023-01-11T01:16:14.418Z,0.80
2023-01-11T01:17:14.372Z,0.50
2023-01-11T01:18:14.300Z,0.60
2023-01-11T01:19:14.292Z,0.70
2023-01-11T01:20:14.297Z,0.60
2023-01-11T01:21:14.305Z,0.70
2023-01-11T01:22:14.268Z,0.60
2023-01-11T01:23:14.308Z,0.70
2023-01-11T01:24:14.305Z,0.70
2023-01-11T01:25:14.260Z,0.60
2023-01-11T01:26:14.318Z,0.70
2023-01-11T01:27:14.344Z,0.50
2023-01-11T01:28:14.229Z,0.50
2023-01-11T01:29:14.226Z,0.60
2023-01-11T01:30:14.248Z,0.80
2023-01-11T01:31:14.381Z,0.50
2023-01-11T01:32:14.256Z,0.50
2023-01-11T01:33:14.151Z,0.60
2023-01-11T01:34:14.124Z,0.60
2023-01-11T01:35:14.247Z,0.60
2023-01-11T01:36:14.264Z,0.60
2023-01-11T01:37:14.152Z,0.60
2023-01-11T01:38:14.077Z,0.50
2023-01-11T01:39:14.060Z,0.50
2023-01-11T01:40:14.051Z,0.60
2023-01-11T01:41:14.060Z,0.50
2023-01-11T01:42:14.041Z,0.60
2023-01-11T01:43:14.138Z,0.60
2023-01-11T01:44:14.025Z,0.60
2023-01-11T01:45:14.031Z,0.50
2023-01-11T01:46:14.019Z,0.70
2023-01-11T01:47:13.971Z,0.60
2023-01-11T01:48:13.963Z,0.70
2023-01-11T01:49:13.974Z,0.60
2023-01-11T01:50:13.947Z,0.70
2023-01-11T01:51:13.998Z,0.70
2023-01-11T01:52:13.933Z,0.50
2023-01-11T01:53:13.946Z,0.60
2023-01-11T01:54:13.942Z,0.60
2023-01-11T01:55:13.882Z,0.60
2023-01-11T01:56:13.887Z,0.60
2023-01-11T01:57:13.912Z,0.50
2023-01-11T01:58:13.870Z,0.60
2023-01-11T01:59:13.840Z,0.60
2023-01-11T02:00:13.839Z,0.60
2023-01-11T02:01:13.873Z,0.50
2023-01-11T02:02:13.817Z,0.50
2023-01-11T02:03:13.805Z,0.50
2023-01-11T02:04:13.788Z,0.70
2023-01-11T02:05:13.795Z,0.50
2023-01-11T02:06:13.769Z,0.60
2023-01-11T02:07:13.800Z,0.50
2023-01-11T02:08:13.749Z,0.40
2023-01-11T02:09:13.741Z,0.70
2023-01-11T02:10:13.746Z,0.60
2023-01-11T02:11:13.750Z,0.50
2023-01-11T02:12:13.699Z,0.60
2023-01-11T02:13:13.760Z,0.60
2023-01-11T02:14:13.691Z,0.60
2023-01-11T02:15:13.667Z,0.70
2023-01-11T02:16:13.720Z,0.60
2023-01-11T02:17:13.673Z,0.50
2023-01-11T02:18:13.651Z,0.60
2023-01-11T02:19:13.649Z,0.50
2023-01-11T02:20:13.624Z,0.50
2023-01-11T02:21:13.630Z,0.40
2023-01-11T02:22:13.606Z,0.50
2023-01-11T02:23:13.580Z,0.50
2023-01-11T02:24:13.569Z,0.50
2023-01-11T02:25:13.609Z,0.50
2023-01-11T02:26:13.590Z,0.50
2023-01-11T02:27:13.540Z,0.50
2023-01-11T02:28:13.567Z,0.50
2023-01-11T02:29:13.513Z,0.60
2023-01-11T02:30:13.520Z,0.50
2023-01-11T02:31:13.560Z,0.60
2023-01-11T02:32:13.556Z,0.60
2023-01-11T02:33:13.468Z,0.50
2023-01-11T02:34:13.528Z,0.60
2023-01-11T02:35:13.479Z,0.70
2023-01-11T02:36:13.610Z,0.60
2023-01-11T02:37:13.447Z,0.70
2023-01-11T02:38:13.428Z,0.60
2023-01-11T02:39:13.451Z,0.70
2023-01-11T02:40:13.398Z,0.90
2023-01-11T02:41:13.393Z,0.80
2023-01-11T02:42:13.381Z,0.60
2023-01-11T02:43:13.377Z,0.60
2023-01-11T02:44:13.364Z,0.60
2023-01-11T02:45:13.369Z,0.50
2023-01-11T02:46:13.421Z,0.60
2023-01-11T02:47:13.358Z,0.60
2023-01-11T02:48:13.315Z,0.60
2023-01-11T02:49:13.331Z,0.50
2023-01-11T02:50:13.327Z,0.60
2023-01-11T02:51:13.309Z,0.60
2023-01-11T02:52:13.278Z,0.60
2023-01-11T02:53:13.257Z,0.70
2023-01-11T02:54:13.284Z,0.60
2023-01-11T02:55:13.232Z,0.60
2023-01-11T02:56:13.312Z,0.60
2023-01-11T02:57:13.209Z,0.70
2023-01-11T02:58:13.257Z,0.50
2023-01-11T02:59:13.238Z,0.50
2023-01-11T03:00:13.220Z,0.60
2023-01-11T03:01:13.193Z,0.60
2023-01-11T03:02:13.179Z,0.60
2023-01-11T03:03:13.203Z,0.50
2023-01-11T03:04:13.147Z,0.50
2023-01-11T03:05:13.184Z,0.70
2023-01-11T03:06:13.163Z,0.60
2023-01-11T03:07:13.118Z,0.60
2023-01-11T03:08:13.109Z,0.80
2023-01-11T03:09:13.115Z,0.60
2023-01-11T03:10:13.089Z,0.70
2023-01-11T03:11:13.088Z,0.60
2023-01-11T03:12:13.085Z,0.50
2023-01-11T03:13:13.061Z,0.70
2023-01-11T03:14:13.047Z,0.60
2023-01-11T03:15:13.016Z,0.70
2023-01-11T03:16:13.052Z,0.70
2023-01-11T03:17:13.065Z,0.60
2023-01-11T03:18:13.031Z,0.70
2023-01-11T03:19:12.979Z,0.70
2023-01-11T03:20:12.989Z,0.70
2023-01-11T03:21:12.948Z,0.70
2023-01-11T03:22:12.985Z,0.70
2023-01-11T03:23:12.927Z,0.70
2023-01-11T03:24:12.916Z,0.70
2023-01-11T03:25:12.905Z,0.60
2023-01-11T03:26:12.920Z,0.70
2023-01-11T03:27:12.886Z,0.70
2023-01-11T03:28:12.914Z,0.70
2023-01-11T03:29:12.871Z,0.80
2023-01-11T03:30:12.869Z,0.80
2023-01-11T03:31:12.931Z,0.70
2023-01-11T03:32:12.874Z,0.70
2023-01-11T03:33:12.823Z,0.80
2023-01-11T03:34:13.075Z,0.70
2023-01-11T03:35:12.805Z,0.80
2023-01-11T03:36:12.794Z,0.80
2023-01-11T03:37:12.800Z,0.70
2023-01-11T03:38:12.778Z,0.90
2023-01-11T03:39:12.769Z,0.70
2023-01-11T03:40:12.806Z,0.90
2023-01-11T03:41:12.734Z,0.80
2023-01-11T03:42:12.765Z,0.80
2023-01-11T03:43:12.727Z,0.80
2023-01-11T03:44:12.717Z,0.90
2023-01-11T03:45:12.703Z,0.80
2023-01-11T03:46:12.744Z,0.80
2023-01-11T03:47:12.688Z,0.80
2023-01-11T03:48:12.678Z,0.90
2023-01-11T03:49:12.676Z,0.70
2023-01-11T03:50:12.645Z,0.90
2023-01-11T03:51:12.665Z,0.90
2023-01-11T03:52:12.674Z,0.80
2023-01-11T03:53:12.607Z,1.00
2023-01-11T03:54:12.693Z,0.90
2023-01-11T03:55:12.599Z,0.90
2023-01-11T03:56:12.621Z,0.90
2023-01-11T03:57:12.600Z,1.00
2023-01-11T03:58:12.563Z,0.90
2023-01-11T03:59:12.544Z,1.00
2023-01-11T04:00:12.541Z,1.00
2023-01-11T04:01:12.583Z,1.10
2023-01-11T04:02:12.536Z,1.00
2023-01-11T04:03:12.557Z,1.00
2023-01-11T04:04:12.821Z,1.00
2023-01-11T04:05:12.491Z,1.00
2023-01-11T04:06:12.483Z,1.10
2023-01-11T04:07:12.494Z,1.20
2023-01-11T04:08:12.460Z,1.00
2023-01-11T04:09:19.958Z,1.00
2023-01-11T04:10:12.431Z,1.00
2023-01-11T04:11:12.450Z,1.10
2023-01-11T04:12:12.408Z,1.00
2023-01-11T04:13:12.414Z,1.00
2023-01-11T04:14:12.394Z,1.20
2023-01-11T04:15:12.487Z,4.40
2023-01-11T04:16:12.365Z,1.20
2023-01-11T04:17:12.346Z,5.00
2023-01-11T04:18:12.360Z,2.10
2023-01-11T04:19:12.325Z,1.20
2023-01-11T04:20:12.320Z,2.10
2023-01-11T04:21:12.327Z,1.60
2023-01-11T04:22:12.374Z,1.00
2023-01-11T04:23:12.317Z,4.70
2023-01-11T04:24:12.283Z,4.10
2023-01-11T04:25:12.254Z,1.40
2023-01-11T04:26:12.316Z,3.60
2023-01-11T04:27:12.235Z,1.60
2023-01-11T04:28:12.243Z,1.70
2023-01-11T04:29:12.225Z,1.30
2023-01-11T04:30:12.203Z,1.60
2023-01-11T04:31:12.245Z,1.00
2023-01-11T04:32:12.250Z,1.40
2023-01-11T04:33:12.165Z,1.20
2023-01-11T04:34:12.187Z,1.40
2023-01-11T04:35:12.166Z,1.60
2023-01-11T04:36:12.185Z,0.90
2023-01-11T04:37:12.148Z,1.20
2023-01-11T04:38:12.190Z,1.10
2023-01-11T04:39:12.155Z,1.20
2023-01-11T04:40:12.115Z,1.20
2023-01-11T04:41:12.090Z,1.00
2023-01-11T04:42:12.093Z,0.90
2023-01-11T04:43:12.067Z,1.00
2023-01-11T04:44:12.156Z,1.10
2023-01-11T04:45:12.070Z,1.20
2023-01-11T04:46:12.042Z,1.20
2023-01-11T04:47:12.036Z,1.10
2023-01-11T04:48:12.027Z,1.00
2023-01-11T04:49:12.019Z,2.00
2023-01-11T04:50:12.163Z,0.90
2023-01-11T04:51:11.983Z,1.40
2023-01-11T04:52:11.985Z,1.10
2023-01-11T04:53:11.954Z,1.10
2023-01-11T04:54:11.966Z,1.20
2023-01-11T04:55:11.964Z,1.40
2023-01-11T04:56:12.016Z,1.90
2023-01-11T04:57:11.910Z,11.00
2023-01-11T04:58:14.449Z,2.10
2023-01-11T04:59:11.892Z,1.40
2023-01-11T05:00:11.881Z,1.40
2023-01-11T05:01:12.061Z,2.90
2023-01-11T05:02:11.863Z,1.80
2023-01-11T05:03:12.069Z,1.90
2023-01-11T05:04:13.506Z,1.60
2023-01-11T05:05:11.825Z,6.10
2023-01-11T05:06:11.821Z,2.80
2023-01-11T05:07:11.803Z,1.30
2023-01-11T05:08:11.803Z,1.50
2023-01-11T05:09:11.824Z,1.40
2023-01-11T05:10:11.777Z,1.50
2023-01-11T05:11:11.760Z,1.80
2023-01-11T05:12:11.761Z,1.40
2023-01-11T05:13:11.738Z,1.70
2023-01-11T05:14:11.734Z,2.20
2023-01-11T05:15:11.741Z,2.00
2023-01-11T05:16:11.724Z,1.80
2023-01-11T05:17:11.712Z,1.50
2023-01-11T05:18:11.698Z,2.10
2023-01-11T05:19:11.680Z,1.60
2023-01-11T05:20:11.650Z,2.10
2023-01-11T05:21:11.713Z,2.00
2023-01-11T05:22:11.675Z,1.40
2023-01-11T05:23:11.619Z,1.50
2023-01-11T05:24:11.609Z,1.70
2023-01-11T05:25:11.589Z,1.60
2023-01-11T05:26:11.593Z,2.40
2023-01-11T05:27:11.577Z,2.50
2023-01-11T05:28:11.611Z,2.10
2023-01-11T05:29:11.549Z,2.10
2023-01-11T05:30:11.581Z,3.90
2023-01-11T05:31:11.533Z,3.20
2023-01-11T05:32:11.530Z,2.40
2023-01-11T05:33:11.532Z,2.20
2023-01-11T05:34:11.583Z,5.40
2023-01-11T05:35:11.522Z,4.80
2023-01-11T05:36:11.510Z,2.40
2023-01-11T05:37:11.499Z,3.50
2023-01-11T05:38:11.468Z,2.00
2023-01-11T05:39:11.487Z,2.40
2023-01-11T05:40:11.501Z,2.00
2023-01-11T05:41:11.464Z,1.60
2023-01-11T05:42:11.429Z,1.60
2023-01-11T05:43:11.459Z,2.60
2023-01-11T05:44:11.402Z,3.10
2023-01-11T05:45:11.389Z,1.40
2023-01-11T05:46:11.529Z,2.10
2023-01-11T05:47:11.380Z,2.40
2023-01-11T05:48:12.366Z,2.20
2023-01-11T05:49:12.018Z,2.40
2023-01-11T05:50:11.428Z,1.50
2023-01-11T05:51:11.399Z,1.60
2023-01-11T05:52:11.369Z,2.20
2023-01-11T05:53:11.339Z,1.90
2023-01-11T05:54:11.323Z,1.70
2023-01-11T05:55:11.330Z,1.50
2023-01-11T05:56:11.337Z,1.40
2023-01-11T05:57:11.375Z,1.50
2023-01-11T05:58:11.415Z,2.70
2023-01-11T05:59:11.246Z,1.70
2023-01-11T06:00:11.263Z,2.00
2023-01-11T06:01:11.440Z,1.40
2023-01-11T06:02:11.397Z,1.30
2023-01-11T06:03:11.336Z,1.50
2023-01-11T06:04:11.226Z,2.20
2023-01-11T06:05:11.242Z,3.20
2023-01-11T06:06:11.171Z,1.90
2023-01-11T06:07:11.150Z,1.90
2023-01-11T06:08:11.157Z,1.90
2023-01-11T06:09:11.187Z,2.60
2023-01-11T06:10:11.152Z,9.00
2023-01-11T06:11:11.171Z,1.80
2023-01-11T06:12:11.172Z,1.70
2023-01-11T06:13:11.241Z,1.30
2023-01-11T06:14:11.211Z,1.90
2023-01-11T06:15:11.057Z,2.10
2023-01-11T06:16:11.235Z,1.50
2023-01-11T06:17:11.061Z,1.60
2023-01-11T06:18:11.027Z,1.50
2023-01-11T06:19:11.038Z,1.50
2023-01-11T06:20:11.066Z,2.10
2023-01-11T06:21:11.042Z,1.40
2023-01-11T06:22:11.006Z,1.70
2023-01-11T06:23:10.979Z,1.70
2023-01-11T06:24:10.975Z,1.80
2023-01-11T06:25:11.005Z,1.30
2023-01-11T06:26:10.986Z,1.50
2023-01-11T06:27:10.951Z,2.30
2023-01-11T06:28:10.918Z,1.90
2023-01-11T06:29:10.917Z,1.50
2023-01-11T06:30:10.905Z,1.70
2023-01-11T06:31:10.954Z,2.00
2023-01-11T06:32:12.453Z,2.10
2023-01-11T06:33:10.877Z,1.70
2023-01-11T06:34:10.900Z,2.20
2023-01-11T06:35:10.871Z,1.60
2023-01-11T06:36:10.841Z,1.50
2023-01-11T06:37:10.838Z,1.40
2023-01-11T06:38:10.818Z,1.90
2023-01-11T06:39:10.844Z,1.80
2023-01-11T06:40:10.887Z,1.60
2023-01-11T06:41:10.798Z,1.40
2023-01-11T06:42:10.768Z,1.90
2023-01-11T06:43:10.786Z,1.50
2023-01-11T06:44:10.752Z,1.60
2023-01-11T06:45:10.797Z,1.80
2023-01-11T06:46:10.841Z,1.70
2023-01-11T06:47:10.745Z,1.90
2023-01-11T06:48:11.795Z,2.00
2023-01-11T06:49:10.737Z,2.00
2023-01-11T06:50:10.705Z,2.00
2023-01-11T06:51:10.761Z,2.00
2023-01-11T06:52:10.679Z,1.90
2023-01-11T06:53:10.646Z,2.40
2023-01-11T06:54:10.744Z,2.80
2023-01-11T06:55:10.650Z,2.10
2023-01-11T06:56:10.623Z,2.70
2023-01-11T06:57:10.614Z,2.70
2023-01-11T06:58:10.595Z,2.90
2023-01-11T06:59:10.662Z,2.40
2023-01-11T07:00:17.510Z,2.60
2023-01-11T07:01:10.658Z,3.90
2023-01-11T07:02:10.555Z,6.20
2023-01-11T07:03:10.659Z,3.80
2023-01-11T07:04:10.575Z,3.50
2023-01-11T07:05:10.559Z,3.30
2023-01-11T07:06:10.588Z,3.40
2023-01-11T07:07:10.495Z,3.40
2023-01-11T07:08:10.496Z,3.10
2023-01-11T07:09:10.615Z,3.50
2023-01-11T07:10:10.516Z,3.50
2023-01-11T07:11:10.539Z,3.60
2023-01-11T07:12:10.545Z,3.40
2023-01-11T07:13:10.435Z,3.40
2023-01-11T07:14:10.705Z,3.00
2023-01-11T07:15:10.477Z,3.40
2023-01-11T07:16:10.679Z,4.10
2023-01-11T07:17:10.500Z,3.60
2023-01-11T07:18:10.675Z,3.80
2023-01-11T07:19:10.664Z,2.90
2023-01-11T07:20:10.434Z,3.50
2023-01-11T07:21:10.371Z,3.50
2023-01-11T07:22:10.749Z,3.60
2023-01-11T07:23:10.345Z,3.50
2023-01-11T07:24:10.327Z,3.60
2023-01-11T07:25:10.304Z,3.80
2023-01-11T07:26:10.321Z,4.10
2023-01-11T07:27:10.288Z,3.80
2023-01-11T07:28:10.320Z,3.70
2023-01-11T07:29:10.279Z,3.80
2023-01-11T07:30:10.252Z,3.60
2023-01-11T07:31:10.277Z,4.00
2023-01-11T07:32:10.249Z,3.70
2023-01-11T07:33:12.163Z,4.30
2023-01-11T07:34:10.205Z,4.60
2023-01-11T07:35:10.244Z,4.30
2023-01-11T07:36:10.246Z,4.80
2023-01-11T07:37:28.166Z,5.20
2023-01-11T07:38:11.165Z,5.00
2023-01-11T07:39:10.162Z,5.20
2023-01-11T07:40:10.134Z,5.50
2023-01-11T07:41:11.908Z,6.10
2023-01-11T07:42:10.135Z,6.00
2023-01-11T07:43:10.114Z,6.50
2023-01-11T07:44:10.093Z,6.20
2023-01-11T07:45:10.116Z,6.30
2023-01-11T07:46:11.132Z,7.20
2023-01-11T07:47:10.117Z,6.50
2023-01-11T07:48:10.072Z,6.20
2023-01-11T07:49:10.055Z,6.10
2023-01-11T07:50:10.036Z,6.30
2023-01-11T07:51:10.034Z,6.20
2023-01-11T07:52:10.086Z,6.70
2023-01-11T07:53:10.007Z,5.80
2023-01-11T07:54:10.075Z,5.50
2023-01-11T07:55:10.007Z,6.40
2023-01-11T07:56:09.974Z,6.60
2023-01-11T07:57:09.974Z,7.30
2023-01-11T07:58:09.944Z,6.80
2023-01-11T07:59:09.942Z,6.50
2023-01-11T08:00:09.965Z,7.00
2023-01-11T08:01:09.938Z,7.10
2023-01-11T08:02:09.919Z,7.00
2023-01-11T08:03:10.188Z,7.50
2023-01-11T08:04:09.875Z,7.30
2023-01-11T08:05:09.881Z,7.30
2023-01-11T08:06:09.930Z,7.30
2023-01-11T08:07:09.860Z,7.20
2023-01-11T08:08:09.858Z,6.90
2023-01-11T08:09:09.834Z,7.70
2023-01-11T08:10:17.607Z,8.20
2023-01-11T08:11:09.828Z,7.90
2023-01-11T08:12:09.795Z,8.10
2023-01-11T08:13:09.835Z,7.70
2023-01-11T08:14:09.773Z,7.60
2023-01-11T08:15:09.765Z,7.10
2023-01-11T08:16:09.782Z,7.30
2023-01-11T08:17:09.745Z,7.20
2023-01-11T08:18:09.734Z,7.40
2023-01-11T08:19:09.765Z,6.80
2023-01-11T08:20:09.724Z,7.10
2023-01-11T08:21:09.705Z,8.70
2023-01-11T08:22:09.694Z,7.10
2023-01-11T08:23:10.585Z,7.40
2023-01-11T08:24:09.666Z,7.20
2023-01-11T08:25:10.074Z,7.10
2023-01-11T08:26:09.673Z,6.70
2023-01-11T08:27:09.691Z,5.50
2023-01-11T08:28:09.624Z,6.00
2023-01-11T08:29:09.627Z,6.60
2023-01-11T08:30:09.605Z,6.20
2023-01-11T08:31:09.686Z,6.20
2023-01-11T08:32:09.581Z,6.00
2023-01-11T08:33:09.595Z,5.80
2023-01-11T08:34:09.562Z,5.40
2023-01-11T08:35:09.560Z,5.70
2023-01-11T08:36:09.535Z,5.90
2023-01-11T08:37:09.605Z,5.80
2023-01-11T08:38:09.542Z,6.10
2023-01-11T08:39:09.502Z,5.60
2023-01-11T08:40:09.523Z,5.50
2023-01-11T08:41:09.488Z,5.60
2023-01-11T08:42:09.467Z,5.40
2023-01-11T08:43:09.490Z,6.00
2023-01-11T08:44:14.821Z,6.20
2023-01-11T08:45:09.442Z,6.10
2023-01-11T08:46:09.539Z,6.20
2023-01-11T08:47:09.436Z,6.20
2023-01-11T08:48:09.407Z,5.40
2023-01-11T08:49:09.400Z,5.70
2023-01-11T08:50:09.496Z,5.40
2023-01-11T08:51:09.426Z,5.90
2023-01-11T08:52:09.361Z,5.90
2023-01-11T08:53:11.537Z,6.70
2023-01-11T08:54:09.397Z,4.90
2023-01-11T08:55:09.337Z,5.50
2023-01-11T08:56:09.373Z,5.20
2023-01-11T08:57:09.332Z,5.20
2023-01-11T08:58:09.358Z,5.20
2023-01-11T08:59:09.309Z,4.50
2023-01-11T09:00:09.278Z,2.90
2023-01-11T09:01:09.276Z,3.90
2023-01-11T09:02:09.286Z,3.10
2023-01-11T09:03:09.322Z,3.10
2023-01-11T09:04:19.369Z,3.50
2023-01-11T09:05:10.224Z,2.90
2023-01-11T09:06:09.351Z,3.00
2023-01-11T09:07:09.255Z,3.00
2023-01-11T09:08:09.192Z,3.10
2023-01-11T09:09:09.208Z,2.90
2023-01-11T09:10:09.459Z,2.80
2023-01-11T09:11:09.163Z,2.90
2023-01-11T09:12:09.150Z,2.40
2023-01-11T09:13:09.149Z,2.80
2023-01-11T09:14:09.180Z,2.10
2023-01-11T09:15:09.132Z,3.20
2023-01-11T09:16:09.435Z,2.80
2023-01-11T09:17:09.140Z,3.30
2023-01-11T09:18:09.149Z,2.90
2023-01-11T09:19:09.122Z,2.10
2023-01-11T09:20:09.172Z,3.30
2023-01-11T09:21:09.152Z,3.00
2023-01-11T09:22:09.074Z,3.50
2023-01-11T09:23:09.045Z,2.90
2023-01-11T09:24:09.039Z,2.90
2023-01-11T09:25:09.014Z,3.10
2023-01-11T09:26:09.030Z,3.20
2023-01-11T09:27:09.142Z,3.20
2023-01-11T09:28:09.077Z,2.90
2023-01-11T09:29:09.058Z,3.80
2023-01-11T09:30:08.986Z,2.90
2023-01-11T09:31:09.003Z,2.80
2023-01-11T09:32:08.941Z,3.90
2023-01-11T09:33:08.951Z,3.20
2023-01-11T09:34:08.906Z,3.00
2023-01-11T09:35:08.921Z,2.80
2023-01-11T09:36:08.890Z,2.90
2023-01-11T09:37:08.877Z,3.50
2023-01-11T09:38:08.874Z,3.30
2023-01-11T09:39:08.880Z,3.50
2023-01-11T09:40:08.872Z,3.20
2023-01-11T09:41:09.231Z,3.40
2023-01-11T09:42:08.964Z,3.80
2023-01-11T09:43:08.810Z,3.20
2023-01-11T09:44:08.816Z,3.70
2023-01-11T09:45:08.824Z,3.20
2023-01-11T09:46:08.912Z,3.80
2023-01-11T09:47:10.501Z,3.70
2023-01-11T09:48:08.765Z,4.00
2023-01-11T09:49:08.779Z,4.10
2023-01-11T09:50:08.729Z,3.80
2023-01-11T09:51:08.735Z,3.20
2023-01-11T09:52:08.699Z,4.20
2023-01-11T09:53:08.836Z,4.50
2023-01-11T09:54:08.702Z,3.80
2023-01-11T09:55:08.683Z,3.60
2023-01-11T09:56:08.715Z,3.80
2023-01-11T09:57:08.663Z,3.60
2023-01-11T09:58:08.665Z,3.70
2023-01-11T09:59:08.692Z,4.20
2023-01-11T10:00:08.638Z,3.50
2023-01-11T10:01:08.727Z,3.60
2023-01-11T10:02:08.620Z,3.70
2023-01-11T10:03:08.588Z,3.70
2023-01-11T10:04:08.618Z,3.30
2023-01-11T10:05:08.629Z,4.30
2023-01-11T10:06:08.555Z,3.60
2023-01-11T10:07:10.050Z,4.00
2023-01-11T10:18:23.221Z,5.40
2023-01-11T10:18:26.030Z,5.60
2023-01-11T10:18:29.206Z,5.00
2023-01-11T10:18:39.496Z,4.40
2023-01-11T10:18:42.638Z,6.30
2023-01-11T10:19:33.439Z,6.20
2023-01-11T10:20:09.459Z,7.00
2023-01-11T10:21:08.444Z,4.70
2023-01-11T10:22:08.389Z,6.50
2023-01-11T10:23:12.990Z,5.60
2023-01-11T10:24:08.406Z,6.00
2023-01-11T10:25:09.120Z,5.10
2023-01-11T10:26:08.355Z,3.60
2023-01-11T10:27:08.467Z,5.60
2023-01-11T10:28:08.427Z,3.80
2023-01-11T10:29:08.300Z,4.90
2023-01-11T10:30:08.312Z,7.00
2023-01-11T10:31:08.428Z,6.50
2023-01-11T10:32:08.281Z,4.20
2023-01-11T10:33:08.282Z,4.40
2023-01-11T10:34:08.312Z,4.20
2023-01-11T10:35:08.250Z,4.90
2023-01-11T10:36:08.249Z,4.90
2023-01-11T10:37:08.219Z,3.40
2023-01-11T10:38:08.248Z,3.40
2023-01-11T10:39:08.196Z,5.00
2023-01-11T10:40:08.224Z,3.40
2023-01-11T10:41:08.181Z,2.90
2023-01-11T10:42:08.169Z,3.00
2023-01-11T10:43:08.148Z,2.30
2023-01-11T10:44:08.188Z,3.70
2023-01-11T10:45:08.211Z,2.80
2023-01-11T10:46:08.165Z,3.50
2023-01-11T10:47:08.109Z,3.20
2023-01-11T10:48:08.109Z,3.90
2023-01-11T10:49:08.119Z,3.20
2023-01-11T10:50:08.161Z,3.40
2023-01-11T10:51:08.070Z,3.30
2023-01-11T10:52:08.109Z,4.30
2023-01-11T10:53:08.079Z,3.50
2023-01-11T10:54:08.100Z,3.60
2023-01-11T10:55:08.069Z,4.00
2023-01-11T10:56:08.076Z,3.20
2023-01-11T10:57:08.833Z,3.40
2023-01-11T10:58:08.047Z,2.90
2023-01-11T10:59:07.991Z,2.80
2023-01-11T11:00:07.996Z,3.50
2023-01-11T11:01:08.005Z,3.40
2023-01-11T11:02:07.987Z,3.80
2023-01-11T11:03:07.970Z,3.50
2023-01-11T11:04:07.939Z,3.20
2023-01-11T11:05:07.920Z,3.10
2023-01-11T11:06:07.908Z,3.10
2023-01-11T11:07:07.897Z,2.60
2023-01-11T11:08:07.937Z,3.10
2023-01-11T11:09:07.887Z,4.00
2023-01-11T11:10:07.868Z,3.70
2023-01-11T11:11:07.884Z,3.70
2023-01-11T11:12:07.848Z,3.20
2023-01-11T11:13:07.841Z,3.90
2023-01-11T11:14:12.801Z,3.50
2023-01-11T11:15:07.831Z,3.20
2023-01-11T11:16:07.899Z,3.20
2023-01-11T11:17:07.807Z,3.50
2023-01-11T11:18:07.785Z,2.80
2023-01-11T11:19:07.766Z,3.10
2023-01-11T11:20:07.826Z,2.70
2023-01-11T11:21:07.749Z,2.90
2023-01-11T11:22:07.736Z,2.80
2023-01-11T11:23:07.767Z,2.40
2023-01-11T11:24:07.732Z,2.20
2023-01-11T11:25:07.704Z,2.60
2023-01-11T11:26:07.728Z,1.80
2023-01-11T11:27:07.735Z,2.20
2023-01-11T11:28:07.668Z,2.30
2023-01-11T11:29:07.707Z,1.80
2023-01-11T11:30:07.648Z,2.20
2023-01-11T11:31:07.671Z,3.10
2023-01-11T11:32:07.666Z,3.10
2023-01-11T11:33:07.605Z,3.00
2023-01-11T11:34:07.605Z,2.40
2023-01-11T11:35:07.615Z,2.70
2023-01-11T11:36:07.590Z,2.50
2023-01-11T11:37:07.584Z,2.50
2023-01-11T11:38:07.629Z,2.70
2023-01-11T11:39:07.608Z,2.70
2023-01-11T11:40:07.549Z,2.90
2023-01-11T11:41:07.563Z,2.90
2023-01-11T11:42:07.520Z,2.20
2023-01-11T11:43:07.501Z,2.50
2023-01-11T11:44:07.508Z,2.00
2023-01-11T11:45:07.504Z,2.00
2023-01-11T11:46:10.903Z,2.40
2023-01-11T11:47:07.464Z,2.10
2023-01-11T11:48:07.470Z,2.10
2023-01-11T11:49:07.441Z,2.20
2023-01-11T11:50:07.515Z,2.70
2023-01-11T11:51:07.415Z,2.30
2023-01-11T11:52:07.774Z,2.30
2023-01-11T11:53:07.421Z,2.40
2023-01-11T11:54:07.407Z,2.50
2023-01-11T11:55:07.405Z,3.00
2023-01-11T11:56:07.394Z,2.50
2023-01-11T11:57:07.382Z,1.70
2023-01-11T11:58:07.354Z,2.20
2023-01-11T11:59:07.337Z,2.10
2023-01-11T12:00:07.336Z,2.20
2023-01-11T12:01:07.305Z,2.70
2023-01-11T12:02:07.333Z,2.60
2023-01-11T12:03:12.235Z,2.00
2023-01-11T12:04:07.274Z,2.30
2023-01-11T12:05:07.289Z,2.00
2023-01-11T12:06:07.270Z,2.50
2023-01-11T12:07:07.244Z,2.50
2023-01-11T12:08:07.625Z,2.20
2023-01-11T12:09:07.245Z,2.30
2023-01-11T12:10:07.277Z,2.60
2023-01-11T12:11:07.312Z,2.60
2023-01-11T12:12:07.192Z,2.80
2023-01-11T12:13:07.177Z,2.70
2023-01-11T12:14:07.183Z,2.70
2023-01-11T12:15:07.156Z,3.30
2023-01-11T12:16:12.498Z,3.00
2023-01-11T12:17:07.145Z,2.90
2023-01-11T12:18:08.824Z,3.10
2023-01-11T12:19:07.113Z,2.60
2023-01-11T12:20:07.108Z,2.40
2023-01-11T12:21:07.090Z,2.90
2023-01-11T12:22:07.082Z,2.50
2023-01-11T12:23:07.126Z,3.00
2023-01-11T12:24:07.057Z,2.10
2023-01-11T12:25:07.043Z,2.80
2023-01-11T12:26:07.066Z,3.00
2023-01-11T12:27:07.122Z,2.60
2023-01-11T12:28:07.014Z,2.30
2023-01-11T12:29:07.051Z,2.20
2023-01-11T12:30:06.995Z,3.10
2023-01-11T12:31:06.996Z,2.30
2023-01-11T12:32:06.972Z,2.60
2023-01-11T12:33:06.960Z,2.80
2023-01-11T12:34:06.973Z,2.60
2023-01-11T12:35:07.022Z,2.80
2023-01-11T12:36:06.987Z,3.30
2023-01-11T12:37:06.927Z,3.30
2023-01-11T12:38:06.908Z,3.60
2023-01-11T12:39:06.921Z,3.00
2023-01-11T12:40:06.888Z,3.00
2023-01-11T12:41:08.550Z,3.60
2023-01-11T12:42:06.871Z,3.60
2023-01-11T12:43:06.852Z,2.80
2023-01-11T12:44:06.856Z,3.50
2023-01-11T12:45:06.962Z,4.00
2023-01-11T12:46:06.839Z,3.00
2023-01-11T12:47:06.808Z,4.00
2023-01-11T12:48:06.792Z,3.70
2023-01-11T12:49:06.782Z,3.50
2023-01-11T12:50:06.825Z,3.80
2023-01-11T12:51:06.766Z,3.10
2023-01-11T12:52:06.783Z,3.50
2023-01-11T12:53:06.760Z,3.10
2023-01-11T12:54:06.825Z,3.90
2023-01-11T12:55:06.730Z,4.30
2023-01-11T12:56:16.851Z,3.10
2023-01-11T12:57:06.694Z,2.50
2023-01-11T12:58:06.733Z,3.60
2023-01-11T12:59:06.681Z,3.60
2023-01-11T13:00:06.662Z,4.70
2023-01-11T13:01:06.806Z,3.80
2023-01-11T13:02:06.757Z,3.80
2023-01-11T13:03:06.747Z,3.50
2023-01-11T13:04:11.955Z,2.80
2023-01-11T13:05:06.653Z,4.20
2023-01-11T13:06:06.590Z,3.80
2023-01-11T13:07:06.629Z,3.70
2023-01-11T13:08:06.592Z,3.70
2023-01-11T13:09:06.589Z,3.60
2023-01-11T13:10:06.565Z,4.40
2023-01-11T13:11:06.568Z,3.90
2023-01-11T13:12:06.530Z,3.90
2023-01-11T13:13:06.950Z,3.80
2023-01-11T13:14:06.577Z,4.20
2023-01-11T13:15:06.499Z,4.10
2023-01-11T13:16:06.486Z,3.50
2023-01-11T13:17:06.579Z,3.80
2023-01-11T13:18:06.466Z,3.90
2023-01-11T13:19:06.453Z,3.60
2023-01-11T13:20:09.679Z,4.10
2023-01-11T13:21:07.053Z,3.80
2023-01-11T13:22:06.431Z,4.40
2023-01-11T13:23:06.451Z,3.90
2023-01-11T13:24:06.412Z,4.10